Gibraltar, Michigan
Current Conditions -  °F | °C
As of 11:34 AM on Thursday 30 Oct 2014 (Local Time) from KONZ Reporting Station
Clear Clear  
Wind Chill:   Ceiling: Unl
Heat Index:   Visibility: 10mi
Dew Point:   Wind: 3mph
Humidity: 62%   Direction: 360°N
Pressure: 30.13"   Gusts: NA
Location:  42.0725°N, 83.2169°W
Report Text: KONZ 301534Z AUTO 36003KT 10SM CLR 08/01 A3013 RMK AO2
Loading
Personal Weather Stations






























Interactive Weather Map
Tropical Storm Tracking
New forecast layout! Learn more

10-Day Weather Forecast

Advertisements
Track Severe Weather on mobile